sensor_id;sensor_type;location;lat;lon;timestamp;pressure;altitude;pressure_sealevel;temperature;humidity
4586;BME280;2305;50.118;8.952;2023-03-21T00:02:16;100819.09;;;11.14;100.00
4586;BME280;2305;50.118;8.952;2023-03-21T00:04:47;100816.22;;;11.17;100.00
4586;BME280;2305;50.118;8.952;2023-03-21T00:07:19;100813.81;;;11.14;100.00
4586;BME280;2305;50.118;8.952;2023-03-21T00:09:47;100810.47;;;11.12;100.00
4586;BME280;2305;50.118;8.952;2023-03-21T00:12:16;100818.50;;;11.11;100.00
4586;BME280;2305;50.118;8.952;2023-03-21T00:14:49;100809.13;;;11.07;100.00
4586;BME280;2305;50.118;8.952;2023-03-21T00:17:20;100814.28;;;11.08;100.00
4586;BME280;2305;50.118;8.952;2023-03-21T00:19:52;100809.94;;;10.96;100.00
4586;BME280;2305;50.118;8.952;2023-03-21T00:22:21;100810.06;;;10.95;100.00
4586;BME280;2305;50.118;8.952;2023-03-21T00:24:51;100807.63;;;10.92;100.00
4586;BME280;2305;50.118;8.952;2023-03-21T00:27:19;100805.13;;;10.90;100.00
4586;BME280;2305;50.118;8.952;2023-03-21T00:30:11;100800.53;;;10.81;100.00
4586;BME280;2305;50.118;8.952;2023-03-21T00:32:40;100796.22;;;10.80;100.00
4586;BME280;2305;50.118;8.952;2023-03-21T00:35:23;100793.13;;;10.86;100.00
4586;BME280;2305;50.118;8.952;2023-03-21T00:38:13;100794.09;;;10.85;100.00
4586;BME280;2305;50.118;8.952;2023-03-21T00:40:41;100794.00;;;10.87;100.00
4586;BME280;2305;50.118;8.952;2023-03-21T00:43:15;100784.38;;;10.86;100.00
4586;BME280;2305;50.118;8.952;2023-03-21T00:45:48;100787.88;;;10.86;100.00
4586;BME280;2305;50.118;8.952;2023-03-21T00:48:17;100778.03;;;10.88;100.00
4586;BME280;2305;50.118;8.952;2023-03-21T00:50:45;100774.44;;;10.89;100.00
4586;BME280;2305;50.118;8.952;2023-03-21T00:53:14;100760.78;;;10.84;100.00
4586;BME280;2305;50.118;8.952;2023-03-21T00:55:42;100756.69;;;10.80;100.00
4586;BME280;2305;50.118;8.952;2023-03-21T00:58:12;100758.59;;;10.78;100.00
4586;BME280;2305;50.118;8.952;2023-03-21T01:00:40;100757.19;;;10.85;100.00
4586;BME280;2305;50.118;8.952;2023-03-21T01:03:15;100762.22;;;10.88;100.00
4586;BME280;2305;50.118;8.952;2023-03-21T01:05:53;100757.91;;;10.87;100.00
4586;BME280;2305;50.118;8.952;2023-03-21T01:08:33;100755.38;;;10.86;100.00
4586;BME280;2305;50.118;8.952;2023-03-21T01:11:20;100756.47;;;10.83;100.00
4586;BME280;2305;50.118;8.952;2023-03-21T01:13:49;100753.09;;;10.81;100.00
4586;BME280;2305;50.118;8.952;2023-03-21T01:16:28;100757.41;;;10.82;100.00
4586;BME280;2305;50.118;8.952;2023-03-21T01:18:59;100756.69;;;10.80;100.00
4586;BME280;2305;50.118;8.952;2023-03-21T01:21:32;100758.81;;;10.75;100.00
4586;BME280;2305;50.118;8.952;2023-03-21T01:24:02;100758.56;;;10.67;100.00
4586;BME280;2305;50.118;8.952;2023-03-21T01:26:31;100758.53;;;10.56;100.00
4586;BME280;2305;50.118;8.952;2023-03-21T01:29:00;100760.78;;;10.50;100.00
4586;BME280;2305;50.118;8.952;2023-03-21T01:31:28;100755.50;;;10.50;100.00
4586;BME280;2305;50.118;8.952;2023-03-21T01:33:58;100756.25;;;10.52;100.00
4586;BME280;2305;50.118;8.952;2023-03-21T01:36:27;100755.41;;;10.51;100.00
4586;BME280;2305;50.118;8.952;2023-03-21T01:39:00;100749.50;;;10.48;100.00
4586;BME280;2305;50.118;8.952;2023-03-21T01:41:33;100751.44;;;10.46;100.00
4586;BME280;2305;50.118;8.952;2023-03-21T01:44:27;100753.09;;;10.47;100.00
4586;BME280;2305;50.118;8.952;2023-03-21T01:46:56;100748.66;;;10.47;100.00
4586;BME280;2305;50.118;8.952;2023-03-21T01:49:48;100751.19;;;10.49;100.00
4586;BME280;2305;50.118;8.952;2023-03-21T01:52:37;100739.69;;;10.50;100.00
4586;BME280;2305;50.118;8.952;2023-03-21T01:55:16;100745.09;;;10.48;100.00
4586;BME280;2305;50.118;8.952;2023-03-21T01:58:07;100740.03;;;10.45;100.00
4586;BME280;2305;50.118;8.952;2023-03-21T02:00:50;100743.63;;;10.44;100.00
4586;BME280;2305;50.118;8.952;2023-03-21T02:03:31;100739.44;;;10.42;100.00
4586;BME280;2305;50.118;8.952;2023-03-21T02:06:28;100738.91;;;10.37;100.00
4586;BME280;2305;50.118;8.952;2023-03-21T02:09:10;100733.28;;;10.30;100.00
4586;BME280;2305;50.118;8.952;2023-03-21T02:11:40;100736.25;;;10.26;100.00
4586;BME280;2305;50.118;8.952;2023-03-21T02:14:14;100729.31;;;10.25;100.00
4586;BME280;2305;50.118;8.952;2023-03-21T02:17:05;100726.16;;;10.20;100.00
4586;BME280;2305;50.118;8.952;2023-03-21T02:23:34;100720.44;;;10.26;100.00
4586;BME280;2305;50.118;8.952;2023-03-21T02:26:41;100716.75;;;10.28;100.00
4586;BME280;2305;50.118;8.952;2023-03-21T02:29:52;100718.44;;;10.29;100.00
4586;BME280;2305;50.118;8.952;2023-03-21T02:32:39;100713.88;;;10.31;100.00
4586;BME280;2305;50.118;8.952;2023-03-21T02:35:31;100703.94;;;10.24;100.00
4586;BME280;2305;50.118;8.952;2023-03-21T02:38:13;100698.78;;;10.22;100.00
4586;BME280;2305;50.118;8.952;2023-03-21T02:40:50;100705.19;;;10.18;100.00
4586;BME280;2305;50.118;8.952;2023-03-21T02:43:27;100704.38;;;10.18;100.00
4586;BME280;2305;50.118;8.952;2023-03-21T02:46:01;100700.19;;;10.15;100.00
4586;BME280;2305;50.118;8.952;2023-03-21T02:48:37;100698.72;;;10.11;100.00
4586;BME280;2305;50.118;8.952;2023-03-21T02:51:20;100697.28;;;10.07;100.00
4586;BME280;2305;50.118;8.952;2023-03-21T02:53:54;100705.38;;;10.04;100.00
4586;BME280;2305;50.118;8.952;2023-03-21T02:56:47;100703.91;;;10.00;100.00
4586;BME280;2305;50.118;8.952;2023-03-21T02:59:18;100704.34;;;9.94;100.00
4586;BME280;2305;50.118;8.952;2023-03-21T03:01:49;100702.78;;;9.92;100.00
4586;BME280;2305;50.118;8.952;2023-03-21T03:04:22;100707.94;;;9.93;100.00
4586;BME280;2305;50.118;8.952;2023-03-21T03:07:21;100703.84;;;9.89;100.00
4586;BME280;2305;50.118;8.952;2023-03-21T03:10:25;100694.59;;;9.84;100.00
4586;BME280;2305;50.118;8.952;2023-03-21T03:13:02;100691.44;;;9.79;100.00
4586;BME280;2305;50.118;8.952;2023-03-21T03:15:40;100696.09;;;9.75;100.00
4586;BME280;2305;50.118;8.952;2023-03-21T03:18:19;100697.16;;;9.73;100.00
4586;BME280;2305;50.118;8.952;2023-03-21T03:20:54;100691.16;;;9.71;100.00
4586;BME280;2305;50.118;8.952;2023-03-21T03:23:29;100697.63;;;9.67;100.00
4586;BME280;2305;50.118;8.952;2023-03-21T03:26:07;100697.00;;;9.63;100.00
4586;BME280;2305;50.118;8.952;2023-03-21T03:28:38;100702.47;;;9.60;100.00
4586;BME280;2305;50.118;8.952;2023-03-21T03:31:18;100700.16;;;9.56;100.00
4586;BME280;2305;50.118;8.952;2023-03-21T03:34:01;100694.28;;;9.52;100.00
4586;BME280;2305;50.118;8.952;2023-03-21T03:36:38;100699.78;;;9.49;100.00
4586;BME280;2305;50.118;8.952;2023-03-21T03:39:13;100710.28;;;9.49;100.00
4586;BME280;2305;50.118;8.952;2023-03-21T03:41:52;100697.56;;;9.43;100.00
4586;BME280;2305;50.118;8.952;2023-03-21T03:44:42;100689.06;;;9.40;100.00
4586;BME280;2305;50.118;8.952;2023-03-21T03:47:14;100694.75;;;9.34;100.00
4586;BME280;2305;50.118;8.952;2023-03-21T03:50:05;100690.88;;;9.27;100.00
4586;BME280;2305;50.118;8.952;2023-03-21T03:52:40;100684.97;;;9.23;100.00
4586;BME280;2305;50.118;8.952;2023-03-21T03:55:24;100678.25;;;9.19;100.00
4586;BME280;2305;50.118;8.952;2023-03-21T03:58:03;100687.22;;;9.17;100.00
4586;BME280;2305;50.118;8.952;2023-03-21T04:00:46;100687.50;;;9.12;100.00
4586;BME280;2305;50.118;8.952;2023-03-21T04:03:15;100684.16;;;9.10;100.00
4586;BME280;2305;50.118;8.952;2023-03-21T04:05:45;100687.81;;;9.08;100.00
4586;BME280;2305;50.118;8.952;2023-03-21T04:08:15;100680.50;;;9.00;100.00
4586;BME280;2305;50.118;8.952;2023-03-21T04:10:49;100681.44;;;8.99;100.00
4586;BME280;2305;50.118;8.952;2023-03-21T04:13:22;100684.28;;;8.96;100.00
4586;BME280;2305;50.118;8.952;2023-03-21T04:16:13;100680.59;;;8.87;100.00
4586;BME280;2305;50.118;8.952;2023-03-21T04:18:42;100684.59;;;8.80;100.00
4586;BME280;2305;50.118;8.952;2023-03-21T04:21:11;100678.63;;;8.78;100.00
4586;BME280;2305;50.118;8.952;2023-03-21T04:23:40;100681.53;;;8.73;100.00
4586;BME280;2305;50.118;8.952;2023-03-21T04:26:10;100679.03;;;8.72;100.00
4586;BME280;2305;50.118;8.952;2023-03-21T04:28:50;100678.41;;;8.68;100.00
4586;BME280;2305;50.118;8.952;2023-03-21T04:31:39;100676.59;;;8.69;100.00
4586;BME280;2305;50.118;8.952;2023-03-21T04:34:11;100673.78;;;8.72;100.00
4586;BME280;2305;50.118;8.952;2023-03-21T04:36:45;100674.81;;;8.69;100.00
4586;BME280;2305;50.118;8.952;2023-03-21T04:39:19;100669.56;;;8.69;100.00
4586;BME280;2305;50.118;8.952;2023-03-21T04:41:49;100666.00;;;8.70;100.00
4586;BME280;2305;50.118;8.952;2023-03-21T04:44:18;100671.03;;;8.73;100.00
4586;BME280;2305;50.118;8.952;2023-03-21T04:46:47;100672.81;;;8.73;100.00
4586;BME280;2305;50.118;8.952;2023-03-21T04:49:16;100668.53;;;8.72;100.00
4586;BME280;2305;50.118;8.952;2023-03-21T04:51:45;100662.41;;;8.71;100.00
4586;BME280;2305;50.118;8.952;2023-03-21T04:54:18;100664.00;;;8.74;100.00
4586;BME280;2305;50.118;8.952;2023-03-21T04:56:49;100664.72;;;8.76;100.00
4586;BME280;2305;50.118;8.952;2023-03-21T04:59:19;100663.69;;;8.78;100.00
4586;BME280;2305;50.118;8.952;2023-03-21T05:01:47;100657.38;;;8.81;100.00
4586;BME280;2305;50.118;8.952;2023-03-21T05:04:16;100662.94;;;8.76;100.00
4586;BME280;2305;50.118;8.952;2023-03-21T05:06:45;100672.81;;;8.73;100.00
4586;BME280;2305;50.118;8.952;2023-03-21T05:09:15;100666.09;;;8.69;100.00
4586;BME280;2305;50.118;8.952;2023-03-21T05:11:44;100661.88;;;8.66;100.00
4586;BME280;2305;50.118;8.952;2023-03-21T05:14:20;100661.16;;;8.64;100.00
4586;BME280;2305;50.118;8.952;2023-03-21T05:16:52;100664.09;;;8.60;100.00
4586;BME280;2305;50.118;8.952;2023-03-21T05:19:24;100665.03;;;8.59;100.00
4586;BME280;2305;50.118;8.952;2023-03-21T05:22:04;100665.47;;;8.53;100.00
4586;BME280;2305;50.118;8.952;2023-03-21T05:24:39;100671.56;;;8.53;100.00
4586;BME280;2305;50.118;8.952;2023-03-21T05:27:12;100679.53;;;8.52;100.00
4586;BME280;2305;50.118;8.952;2023-03-21T05:30:09;100673.03;;;8.57;100.00
4586;BME280;2305;50.118;8.952;2023-03-21T05:32:38;100668.41;;;8.61;100.00
4586;BME280;2305;50.118;8.952;2023-03-21T05:35:09;100667.44;;;8.62;100.00
4586;BME280;2305;50.118;8.952;2023-03-21T05:37:37;100662.84;;;8.65;100.00
4586;BME280;2305;50.118;8.952;2023-03-21T05:40:07;100662.31;;;8.60;100.00
4586;BME280;2305;50.118;8.952;2023-03-21T05:42:40;100664.50;;;8.54;100.00
4586;BME280;2305;50.118;8.952;2023-03-21T05:45:19;100664.41;;;8.55;100.00
4586;BME280;2305;50.118;8.952;2023-03-21T05:47:49;100667.44;;;8.49;100.00
4586;BME280;2305;50.118;8.952;2023-03-21T05:50:19;100664.19;;;8.46;100.00
4586;BME280;2305;50.118;8.952;2023-03-21T05:53:01;100667.66;;;8.46;100.00
4586;BME280;2305;50.118;8.952;2023-03-21T05:55:29;100665.69;;;8.50;100.00
4586;BME280;2305;50.118;8.952;2023-03-21T05:57:58;100660.44;;;8.50;100.00
4586;BME280;2305;50.118;8.952;2023-03-21T06:00:30;100659.97;;;8.56;100.00
4586;BME280;2305;50.118;8.952;2023-03-21T06:03:21;100669.13;;;8.50;100.00
4586;BME280;2305;50.118;8.952;2023-03-21T06:06:08;100669.44;;;8.58;100.00
4586;BME280;2305;50.118;8.952;2023-03-21T06:08:44;100664.63;;;8.65;100.00
4586;BME280;2305;50.118;8.952;2023-03-21T06:11:19;100675.56;;;8.71;100.00
4586;BME280;2305;50.118;8.952;2023-03-21T06:13:53;100660.50;;;8.73;100.00
4586;BME280;2305;50.118;8.952;2023-03-21T06:16:23;100664.53;;;8.79;100.00
4586;BME280;2305;50.118;8.952;2023-03-21T06:18:54;100658.09;;;8.82;100.00
4586;BME280;2305;50.118;8.952;2023-03-21T06:21:37;100653.59;;;8.85;100.00
4586;BME280;2305;50.118;8.952;2023-03-21T06:24:07;100663.66;;;8.90;100.00
4586;BME280;2305;50.118;8.952;2023-03-21T06:26:35;100663.25;;;8.96;100.00
4586;BME280;2305;50.118;8.952;2023-03-21T06:29:04;100673.97;;;9.06;100.00
4586;BME280;2305;50.118;8.952;2023-03-21T06:31:33;100675.22;;;9.13;100.00
4586;BME280;2305;50.118;8.952;2023-03-21T06:34:03;100685.63;;;9.14;100.00
4586;BME280;2305;50.118;8.952;2023-03-21T06:36:32;100681.19;;;9.15;100.00
4586;BME280;2305;50.118;8.952;2023-03-21T06:39:00;100679.44;;;9.15;100.00
4586;BME280;2305;50.118;8.952;2023-03-21T06:41:30;100682.31;;;9.36;100.00
4586;BME280;2305;50.118;8.952;2023-03-21T06:44:02;100687.56;;;9.48;100.00
4586;BME280;2305;50.118;8.952;2023-03-21T06:46:40;100692.16;;;9.57;100.00
4586;BME280;2305;50.118;8.952;2023-03-21T06:49:10;100680.97;;;9.66;100.00
4586;BME280;2305;50.118;8.952;2023-03-21T06:51:39;100685.81;;;9.72;100.00
4586;BME280;2305;50.118;8.952;2023-03-21T06:54:16;100688.47;;;9.83;100.00
4586;BME280;2305;50.118;8.952;2023-03-21T06:56:59;100688.72;;;9.80;100.00
4586;BME280;2305;50.118;8.952;2023-03-21T06:59:32;100685.69;;;9.97;100.00
4586;BME280;2305;50.118;8.952;2023-03-21T07:02:04;100681.09;;;9.88;100.00
4586;BME280;2305;50.118;8.952;2023-03-21T07:04:38;100687.69;;;9.94;100.00
4586;BME280;2305;50.118;8.952;2023-03-21T07:07:11;100685.31;;;9.91;100.00
4586;BME280;2305;50.118;8.952;2023-03-21T07:09:39;100692.69;;;9.86;100.00
4586;BME280;2305;50.118;8.952;2023-03-21T07:12:21;100685.75;;;9.85;100.00
4586;BME280;2305;50.118;8.952;2023-03-21T07:15:07;100683.84;;;9.87;100.00
4586;BME280;2305;50.118;8.952;2023-03-21T07:17:38;100684.34;;;9.92;100.00
4586;BME280;2305;50.118;8.952;2023-03-21T07:20:08;100682.84;;;10.00;100.00
4586;BME280;2305;50.118;8.952;2023-03-21T07:22:40;100683.38;;;10.05;100.00
4586;BME280;2305;50.118;8.952;2023-03-21T07:25:09;100681.13;;;10.12;100.00
4586;BME280;2305;50.118;8.952;2023-03-21T07:27:41;100677.69;;;10.22;100.00
4586;BME280;2305;50.118;8.952;2023-03-21T07:30:10;100668.91;;;10.34;100.00
4586;BME280;2305;50.118;8.952;2023-03-21T07:32:40;100669.25;;;10.41;100.00
4586;BME280;2305;50.118;8.952;2023-03-21T07:35:10;100671.53;;;10.45;100.00
4586;BME280;2305;50.118;8.952;2023-03-21T07:37:41;100671.22;;;10.61;100.00
4586;BME280;2305;50.118;8.952;2023-03-21T07:40:14;100671.59;;;10.67;100.00
4586;BME280;2305;50.118;8.952;2023-03-21T07:42:43;100676.50;;;10.72;100.00
4586;BME280;2305;50.118;8.952;2023-03-21T07:45:12;100676.28;;;10.86;100.00
4586;BME280;2305;50.118;8.952;2023-03-21T07:47:47;100673.31;;;11.01;100.00
4586;BME280;2305;50.118;8.952;2023-03-21T07:50:16;100675.94;;;11.23;100.00
4586;BME280;2305;50.118;8.952;2023-03-21T07:52:44;100674.16;;;11.46;100.00
4586;BME280;2305;50.118;8.952;2023-03-21T07:55:14;100675.44;;;11.73;100.00
4586;BME280;2305;50.118;8.952;2023-03-21T07:57:43;100671.34;;;11.80;100.00
4586;BME280;2305;50.118;8.952;2023-03-21T08:00:13;100676.94;;;11.98;100.00
4586;BME280;2305;50.118;8.952;2023-03-21T08:02:54;100674.25;;;12.09;100.00
4586;BME280;2305;50.118;8.952;2023-03-21T08:05:26;100670.75;;;12.08;100.00
4586;BME280;2305;50.118;8.952;2023-03-21T08:07:55;100663.63;;;12.20;100.00
4586;BME280;2305;50.118;8.952;2023-03-21T08:10:23;100666.53;;;12.37;100.00
4586;BME280;2305;50.118;8.952;2023-03-21T08:12:51;100665.03;;;12.55;100.00
4586;BME280;2305;50.118;8.952;2023-03-21T08:15:20;100667.94;;;12.82;100.00
4586;BME280;2305;50.118;8.952;2023-03-21T08:17:53;100663.38;;;13.05;100.00
4586;BME280;2305;50.118;8.952;2023-03-21T08:20:21;100662.97;;;13.09;100.00
4586;BME280;2305;50.118;8.952;2023-03-21T08:22:53;100659.63;;;13.07;100.00
4586;BME280;2305;50.118;8.952;2023-03-21T08:25:22;100655.81;;;13.30;100.00
4586;BME280;2305;50.118;8.952;2023-03-21T08:27:50;100656.13;;;13.46;100.00
4586;BME280;2305;50.118;8.952;2023-03-21T08:30:21;100652.00;;;13.63;100.00
4586;BME280;2305;50.118;8.952;2023-03-21T08:32:50;100653.28;;;13.68;100.00
4586;BME280;2305;50.118;8.952;2023-03-21T08:35:19;100649.69;;;13.78;100.00
4586;BME280;2305;50.118;8.952;2023-03-21T08:37:48;100657.38;;;13.91;100.00
4586;BME280;2305;50.118;8.952;2023-03-21T08:40:18;100663.66;;;13.99;100.00
4586;BME280;2305;50.118;8.952;2023-03-21T08:42:46;100659.72;;;13.75;100.00
4586;BME280;2305;50.118;8.952;2023-03-21T08:45:15;100652.72;;;13.74;100.00
4586;BME280;2305;50.118;8.952;2023-03-21T08:47:44;100663.31;;;13.74;100.00
4586;BME280;2305;50.118;8.952;2023-03-21T08:50:15;100660.69;;;13.83;100.00
4586;BME280;2305;50.118;8.952;2023-03-21T08:52:46;100663.75;;;13.79;100.00
4586;BME280;2305;50.118;8.952;2023-03-21T08:55:18;100660.94;;;13.71;100.00
4586;BME280;2305;50.118;8.952;2023-03-21T08:57:48;100654.97;;;13.88;100.00
4586;BME280;2305;50.118;8.952;2023-03-21T09:00:17;100656.81;;;13.87;100.00
4586;BME280;2305;50.118;8.952;2023-03-21T09:02:50;100654.88;;;14.08;100.00
4586;BME280;2305;50.118;8.952;2023-03-21T09:05:20;100651.78;;;14.13;100.00
4586;BME280;2305;50.118;8.952;2023-03-21T09:07:50;100649.19;;;14.32;100.00
4586;BME280;2305;50.118;8.952;2023-03-21T09:10:21;100658.63;;;14.44;100.00
4586;BME280;2305;50.118;8.952;2023-03-21T09:12:51;100651.41;;;14.36;100.00
4586;BME280;2305;50.118;8.952;2023-03-21T09:15:21;100644.81;;;14.40;100.00
4586;BME280;2305;50.118;8.952;2023-03-21T09:17:51;100647.88;;;14.64;100.00
4586;BME280;2305;50.118;8.952;2023-03-21T09:20:24;100654.06;;;14.46;100.00
4586;BME280;2305;50.118;8.952;2023-03-21T09:23:00;100654.31;;;14.52;100.00
4586;BME280;2305;50.118;8.952;2023-03-21T09:25:28;100650.97;;;14.60;100.00
4586;BME280;2305;50.118;8.952;2023-03-21T09:27:59;100654.19;;;14.54;100.00
4586;BME280;2305;50.118;8.952;2023-03-21T09:30:27;100646.47;;;14.60;100.00
4586;BME280;2305;50.118;8.952;2023-03-21T09:32:57;100645.06;;;14.66;100.00
4586;BME280;2305;50.118;8.952;2023-03-21T09:35:26;100638.47;;;14.79;100.00
4586;BME280;2305;50.118;8.952;2023-03-21T09:37:55;100640.78;;;15.01;100.00
4586;BME280;2305;50.118;8.952;2023-03-21T09:40:41;100631.59;;;14.96;100.00
4586;BME280;2305;50.118;8.952;2023-03-21T09:43:20;100638.59;;;15.24;100.00
4586;BME280;2305;50.118;8.952;2023-03-21T09:45:58;100640.25;;;15.34;100.00
4586;BME280;2305;50.118;8.952;2023-03-21T09:48:33;100637.25;;;15.47;100.00
4586;BME280;2305;50.118;8.952;2023-03-21T09:51:16;100638.84;;;15.30;100.00
4586;BME280;2305;50.118;8.952;2023-03-21T09:53:48;100644.81;;;15.42;100.00
4586;BME280;2305;50.118;8.952;2023-03-21T09:56:21;100638.47;;;15.52;100.00
4586;BME280;2305;50.118;8.952;2023-03-21T09:58:51;100643.25;;;15.49;100.00
4586;BME280;2305;50.118;8.952;2023-03-21T10:01:24;100642.66;;;15.55;100.00
4586;BME280;2305;50.118;8.952;2023-03-21T10:03:58;100633.38;;;15.59;100.00
4586;BME280;2305;50.118;8.952;2023-03-21T10:06:28;100639.53;;;15.59;100.00
4586;BME280;2305;50.118;8.952;2023-03-21T10:09:02;100628.84;;;15.69;100.00
4586;BME280;2305;50.118;8.952;2023-03-21T10:11:40;100633.19;;;15.70;100.00
4586;BME280;2305;50.118;8.952;2023-03-21T10:14:15;100637.66;;;15.69;100.00
4586;BME280;2305;50.118;8.952;2023-03-21T10:16:50;100632.19;;;15.71;100.00
4586;BME280;2305;50.118;8.952;2023-03-21T10:19:19;100631.91;;;15.74;100.00
4586;BME280;2305;50.118;8.952;2023-03-21T10:21:50;100637.09;;;15.66;100.00
4586;BME280;2305;50.118;8.952;2023-03-21T10:24:30;100627.19;;;15.68;100.00
4586;BME280;2305;50.118;8.952;2023-03-21T10:27:04;100635.63;;;15.63;100.00
4586;BME280;2305;50.118;8.952;2023-03-21T10:29:34;100632.47;;;15.50;100.00
4586;BME280;2305;50.118;8.952;2023-03-21T10:32:08;100625.63;;;15.48;100.00
4586;BME280;2305;50.118;8.952;2023-03-21T10:34:41;100634.41;;;15.48;100.00
4586;BME280;2305;50.118;8.952;2023-03-21T10:37:12;100638.47;;;15.52;100.00
4586;BME280;2305;50.118;8.952;2023-03-21T10:39:44;100631.44;;;15.24;100.00
4586;BME280;2305;50.118;8.952;2023-03-21T10:42:18;100631.56;;;15.32;100.00
4586;BME280;2305;50.118;8.952;2023-03-21T10:44:53;100636.44;;;15.37;100.00
4586;BME280;2305;50.118;8.952;2023-03-21T10:47:28;100630.31;;;15.27;100.00
4586;BME280;2305;50.118;8.952;2023-03-21T10:50:00;100628.66;;;15.26;100.00
4586;BME280;2305;50.118;8.952;2023-03-21T10:52:36;100622.72;;;15.14;100.00
4586;BME280;2305;50.118;8.952;2023-03-21T10:55:19;100625.38;;;15.14;100.00
4586;BME280;2305;50.118;8.952;2023-03-21T10:57:54;100629.81;;;15.14;100.00
4586;BME280;2305;50.118;8.952;2023-03-21T11:00:29;100626.13;;;14.97;100.00
4586;BME280;2305;50.118;8.952;2023-03-21T11:03:01;100628.09;;;14.95;100.00
4586;BME280;2305;50.118;8.952;2023-03-21T11:05:34;100626.75;;;14.82;100.00
4586;BME280;2305;50.118;8.952;2023-03-21T11:08:11;100624.63;;;14.85;100.00
4586;BME280;2305;50.118;8.952;2023-03-21T11:10:51;100623.22;;;14.91;100.00
4586;BME280;2305;50.118;8.952;2023-03-21T11:13:23;100627.22;;;14.95;100.00
4586;BME280;2305;50.118;8.952;2023-03-21T11:15:56;100625.53;;;15.03;100.00
4586;BME280;2305;50.118;8.952;2023-03-21T11:18:26;100622.44;;;15.08;100.00
4586;BME280;2305;50.118;8.952;2023-03-21T11:21:03;100620.09;;;15.05;100.00
4586;BME280;2305;50.118;8.952;2023-03-21T11:23:33;100625.94;;;15.08;100.00
4586;BME280;2305;50.118;8.952;2023-03-21T11:26:08;100617.84;;;15.10;100.00
4586;BME280;2305;50.118;8.952;2023-03-21T11:28:39;100622.97;;;15.11;100.00
4586;BME280;2305;50.118;8.952;2023-03-21T11:31:08;100623.84;;;15.12;100.00
4586;BME280;2305;50.118;8.952;2023-03-21T11:33:38;100620.63;;;15.08;100.00
4586;BME280;2305;50.118;8.952;2023-03-21T11:36:25;100619.25;;;15.04;100.00
4586;BME280;2305;50.118;8.952;2023-03-21T11:38:56;100615.31;;;15.08;100.00
4586;BME280;2305;50.118;8.952;2023-03-21T11:41:30;100627.47;;;15.11;100.00
4586;BME280;2305;50.118;8.952;2023-03-21T11:44:01;100616.94;;;15.19;100.00
4586;BME280;2305;50.118;8.952;2023-03-21T11:46:30;100615.59;;;15.05;100.00
4586;BME280;2305;50.118;8.952;2023-03-21T11:48:59;100618.31;;;14.96;100.00
4586;BME280;2305;50.118;8.952;2023-03-21T11:51:33;100606.88;;;14.86;100.00
4586;BME280;2305;50.118;8.952;2023-03-21T11:54:08;100609.44;;;14.78;100.00
4586;BME280;2305;50.118;8.952;2023-03-21T11:56:41;100597.16;;;14.77;100.00
4586;BME280;2305;50.118;8.952;2023-03-21T11:59:26;100600.75;;;14.85;100.00
4586;BME280;2305;50.118;8.952;2023-03-21T12:02:04;100604.97;;;14.78;100.00
4586;BME280;2305;50.118;8.952;2023-03-21T12:04:40;100601.44;;;14.87;100.00
4586;BME280;2305;50.118;8.952;2023-03-21T12:07:25;100606.34;;;14.82;100.00
4586;BME280;2305;50.118;8.952;2023-03-21T12:10:16;100604.66;;;14.81;100.00
4586;BME280;2305;50.118;8.952;2023-03-21T12:12:54;100603.00;;;14.80;100.00
4586;BME280;2305;50.118;8.952;2023-03-21T12:15:32;100601.94;;;14.64;100.00
4586;BME280;2305;50.118;8.952;2023-03-21T12:18:07;100595.41;;;14.58;100.00
4586;BME280;2305;50.118;8.952;2023-03-21T12:20:39;100600.13;;;14.64;100.00
4586;BME280;2305;50.118;8.952;2023-03-21T12:23:20;100602.78;;;14.64;100.00
4586;BME280;2305;50.118;8.952;2023-03-21T12:26:11;100595.25;;;14.60;100.00
4586;BME280;2305;50.118;8.952;2023-03-21T12:28:47;100608.00;;;14.28;100.00
4586;BME280;2305;50.118;8.952;2023-03-21T12:31:25;100593.22;;;13.97;100.00
4586;BME280;2305;50.118;8.952;2023-03-21T12:34:07;100593.63;;;14.02;100.00
4586;BME280;2305;50.118;8.952;2023-03-21T12:36:47;100598.53;;;13.97;100.00
4586;BME280;2305;50.118;8.952;2023-03-21T12:39:26;100585.53;;;14.03;100.00
4586;BME280;2305;50.118;8.952;2023-03-21T12:42:22;100591.81;;;14.12;100.00
4586;BME280;2305;50.118;8.952;2023-03-21T12:44:56;100584.97;;;14.09;100.00
4586;BME280;2305;50.118;8.952;2023-03-21T12:47:35;100586.91;;;14.17;100.00
4586;BME280;2305;50.118;8.952;2023-03-21T12:50:14;100582.22;;;14.01;100.00
4586;BME280;2305;50.118;8.952;2023-03-21T12:52:47;100580.53;;;13.91;100.00
4586;BME280;2305;50.118;8.952;2023-03-21T12:55:19;100586.53;;;13.93;100.00
4586;BME280;2305;50.118;8.952;2023-03-21T12:57:51;100579.97;;;13.97;100.00
4586;BME280;2305;50.118;8.952;2023-03-21T13:00:26;100577.16;;;13.98;100.00
4586;BME280;2305;50.118;8.952;2023-03-21T13:03:02;100570.31;;;14.05;100.00
4586;BME280;2305;50.118;8.952;2023-03-21T13:05:33;100564.47;;;14.11;100.00
4586;BME280;2305;50.118;8.952;2023-03-21T13:08:10;100560.31;;;14.28;100.00
4586;BME280;2305;50.118;8.952;2023-03-21T13:10:39;100555.78;;;14.38;100.00
4586;BME280;2305;50.118;8.952;2023-03-21T13:13:33;100550.78;;;14.35;100.00
4586;BME280;2305;50.118;8.952;2023-03-21T13:16:24;100549.13;;;14.15;100.00
4586;BME280;2305;50.118;8.952;2023-03-21T13:19:03;100544.00;;;14.04;100.00
4586;BME280;2305;50.118;8.952;2023-03-21T13:21:41;100536.75;;;13.96;100.00
4586;BME280;2305;50.118;8.952;2023-03-21T13:24:23;100543.69;;;14.07;100.00
4586;BME280;2305;50.118;8.952;2023-03-21T13:26:57;100537.44;;;13.98;100.00
4586;BME280;2305;50.118;8.952;2023-03-21T13:29:29;100536.47;;;13.90;100.00
4586;BME280;2305;50.118;8.952;2023-03-21T13:32:06;100538.84;;;13.83;100.00
4586;BME280;2305;50.118;8.952;2023-03-21T13:34:39;100535.06;;;13.76;100.00
4586;BME280;2305;50.118;8.952;2023-03-21T13:37:14;100538.56;;;13.68;100.00
4586;BME280;2305;50.118;8.952;2023-03-21T13:39:46;100529.50;;;13.61;100.00
4586;BME280;2305;50.118;8.952;2023-03-21T13:42:23;100538.00;;;13.55;100.00
4586;BME280;2305;50.118;8.952;2023-03-21T13:45:05;100525.19;;;13.50;100.00
4586;BME280;2305;50.118;8.952;2023-03-21T13:47:40;100528.53;;;13.52;100.00